Accueil
METAR-TAF:

METAR-TAF

Aéroports :

Grazzanise, Italie

latitude: 41-03N, longitude: 014-04E, altitude: 9 m

Observation

Le bulletin a été fait il y a 50 minutes, à 07:55 UTC
Vent 4 kt de est/sud-est
Température 14°C
Humidité 72%
Pression 1005 hPa
Visibilité 10 km ou plus
Quelques nuages à une hauteur de 3000 ft
Nuages épars à une hauteur de 6000 ft

METAR: LIRM 050755Z 12004KT 9999 FEW030 SCT060 14/09 Q1005 RMK BKN VIS MIN 9999 WIND THR06 10005KT BLU

Heure: 09:45 (08:45 UTC)

Prévision

Le bulletin a été fait il y a 45 minutes, à 08:00 UTC
Prévision valable du 05 à 09 UTC au 05 à 18 UTC
Vent 12 kt de sud/sud-est
Visibilité 10 km ou plus
Quelques nuages à une hauteur de 3000 ft
Nuages épars à une hauteur de 6000 ft

TAF: LIRM 050800Z 0509/0518 15012KT 9999 FEW030 SCT060

Observations et prévisions météorologiques de plus de 4000 aéroports (messages METAR et TAF).

Les stations disponibles sont représentées par des disques jaunes et rouges sur la carte.

Passer la souris dessus pour voir le nom de la station.

Cliquer dessus pour voir les observations et prévisions météorologiques.

Pour changer de carte: cliquez sur les boutons verts avec une croix noire pour zoomer, sur le bouton vert avec un tiret pour effectuer un zoom arrière, ou sur les flèches vertes pour les cartes adjacentes.


METAR-TAF: